sensor_id;sensor_type;location;lat;lon;timestamp;P1;durP1;ratioP1;P2;durP2;ratioP2
2029;SDS011;1020;48.854;8.830;2023-07-22T00:00:56;3.53;;;2.67;;
2029;SDS011;1020;48.854;8.830;2023-07-22T00:03:22;2.13;;;2.03;;
2029;SDS011;1020;48.854;8.830;2023-07-22T00:06:02;2.93;;;2.50;;
2029;SDS011;1020;48.854;8.830;2023-07-22T00:08:30;2.17;;;2.00;;
2029;SDS011;1020;48.854;8.830;2023-07-22T00:10:57;2.70;;;2.50;;
2029;SDS011;1020;48.854;8.830;2023-07-22T00:13:25;2.40;;;2.20;;
2029;SDS011;1020;48.854;8.830;2023-07-22T00:15:51;2.57;;;2.37;;
2029;SDS011;1020;48.854;8.830;2023-07-22T00:18:18;2.00;;;1.90;;
2029;SDS011;1020;48.854;8.830;2023-07-22T00:20:45;2.43;;;2.23;;
2029;SDS011;1020;48.854;8.830;2023-07-22T00:23:14;3.80;;;2.30;;
2029;SDS011;1020;48.854;8.830;2023-07-22T00:25:41;2.47;;;2.27;;
2029;SDS011;1020;48.854;8.830;2023-07-22T00:28:08;2.60;;;2.27;;
2029;SDS011;1020;48.854;8.830;2023-07-22T00:30:35;3.20;;;2.00;;
2029;SDS011;1020;48.854;8.830;2023-07-22T00:33:02;3.33;;;2.30;;
2029;SDS011;1020;48.854;8.830;2023-07-22T00:35:28;3.00;;;2.80;;
2029;SDS011;1020;48.854;8.830;2023-07-22T00:37:57;2.43;;;2.30;;
2029;SDS011;1020;48.854;8.830;2023-07-22T00:40:25;2.93;;;2.73;;
2029;SDS011;1020;48.854;8.830;2023-07-22T00:42:51;2.70;;;2.10;;
2029;SDS011;1020;48.854;8.830;2023-07-22T00:45:18;2.43;;;2.23;;
2029;SDS011;1020;48.854;8.830;2023-07-22T00:47:45;3.27;;;2.63;;
2029;SDS011;1020;48.854;8.830;2023-07-22T00:50:12;2.80;;;2.60;;
2029;SDS011;1020;48.854;8.830;2023-07-22T00:52:40;2.97;;;2.67;;
2029;SDS011;1020;48.854;8.830;2023-07-22T00:55:07;2.30;;;2.13;;
2029;SDS011;1020;48.854;8.830;2023-07-22T00:57:36;2.40;;;2.20;;
2029;SDS011;1020;48.854;8.830;2023-07-22T01:00:03;3.27;;;2.97;;
2029;SDS011;1020;48.854;8.830;2023-07-22T01:02:32;3.37;;;2.90;;
2029;SDS011;1020;48.854;8.830;2023-07-22T01:04:59;3.00;;;2.57;;
2029;SDS011;1020;48.854;8.830;2023-07-22T01:07:26;2.47;;;2.27;;
2029;SDS011;1020;48.854;8.830;2023-07-22T01:09:55;5.17;;;2.37;;
2029;SDS011;1020;48.854;8.830;2023-07-22T01:12:23;2.97;;;2.63;;
2029;SDS011;1020;48.854;8.830;2023-07-22T01:14:51;2.60;;;2.40;;
2029;SDS011;1020;48.854;8.830;2023-07-22T01:17:19;3.10;;;2.90;;
2029;SDS011;1020;48.854;8.830;2023-07-22T01:19:45;2.10;;;2.00;;
2029;SDS011;1020;48.854;8.830;2023-07-22T01:22:13;2.97;;;2.67;;
2029;SDS011;1020;48.854;8.830;2023-07-22T01:24:42;3.07;;;2.80;;
2029;SDS011;1020;48.854;8.830;2023-07-22T01:27:10;3.00;;;2.70;;
2029;SDS011;1020;48.854;8.830;2023-07-22T01:29:39;3.30;;;3.00;;
2029;SDS011;1020;48.854;8.830;2023-07-22T01:32:06;3.13;;;2.93;;
2029;SDS011;1020;48.854;8.830;2023-07-22T01:34:34;2.90;;;2.67;;
2029;SDS011;1020;48.854;8.830;2023-07-22T01:37:01;3.17;;;2.90;;
2029;SDS011;1020;48.854;8.830;2023-07-22T01:39:29;2.80;;;2.60;;
2029;SDS011;1020;48.854;8.830;2023-07-22T01:41:57;5.07;;;2.83;;
2029;SDS011;1020;48.854;8.830;2023-07-22T01:44:24;3.00;;;2.70;;
2029;SDS011;1020;48.854;8.830;2023-07-22T01:46:51;2.80;;;2.60;;
2029;SDS011;1020;48.854;8.830;2023-07-22T01:49:18;3.00;;;2.80;;
2029;SDS011;1020;48.854;8.830;2023-07-22T01:51:44;2.77;;;2.57;;
2029;SDS011;1020;48.854;8.830;2023-07-22T01:54:11;2.40;;;2.20;;
2029;SDS011;1020;48.854;8.830;2023-07-22T01:56:38;3.90;;;3.03;;
2029;SDS011;1020;48.854;8.830;2023-07-22T01:59:06;3.13;;;2.70;;
2029;SDS011;1020;48.854;8.830;2023-07-22T02:01:33;3.43;;;3.23;;
2029;SDS011;1020;48.854;8.830;2023-07-22T02:04:00;3.43;;;2.80;;
2029;SDS011;1020;48.854;8.830;2023-07-22T02:06:27;3.07;;;2.87;;
2029;SDS011;1020;48.854;8.830;2023-07-22T02:08:54;3.57;;;3.27;;
2029;SDS011;1020;48.854;8.830;2023-07-22T02:11:21;3.07;;;2.87;;
2029;SDS011;1020;48.854;8.830;2023-07-22T02:13:48;3.03;;;2.83;;
2029;SDS011;1020;48.854;8.830;2023-07-22T02:16:16;3.40;;;3.20;;
2029;SDS011;1020;48.854;8.830;2023-07-22T02:18:43;3.03;;;2.83;;
2029;SDS011;1020;48.854;8.830;2023-07-22T02:21:10;3.53;;;2.87;;
2029;SDS011;1020;48.854;8.830;2023-07-22T02:23:37;3.63;;;3.30;;
2029;SDS011;1020;48.854;8.830;2023-07-22T02:26:04;3.13;;;2.83;;
2029;SDS011;1020;48.854;8.830;2023-07-22T02:28:32;3.27;;;2.60;;
2029;SDS011;1020;48.854;8.830;2023-07-22T02:31:00;3.20;;;2.90;;
2029;SDS011;1020;48.854;8.830;2023-07-22T02:33:32;3.53;;;3.23;;
2029;SDS011;1020;48.854;8.830;2023-07-22T02:35:59;3.17;;;2.87;;
2029;SDS011;1020;48.854;8.830;2023-07-22T02:38:25;2.90;;;2.70;;
2029;SDS011;1020;48.854;8.830;2023-07-22T02:40:52;2.33;;;2.13;;
2029;SDS011;1020;48.854;8.830;2023-07-22T02:43:19;2.63;;;2.30;;
2029;SDS011;1020;48.854;8.830;2023-07-22T02:45:46;3.83;;;2.97;;
2029;SDS011;1020;48.854;8.830;2023-07-22T02:48:12;2.97;;;2.73;;
2029;SDS011;1020;48.854;8.830;2023-07-22T02:50:41;3.20;;;2.90;;
2029;SDS011;1020;48.854;8.830;2023-07-22T02:53:07;2.70;;;2.50;;
2029;SDS011;1020;48.854;8.830;2023-07-22T02:55:34;2.67;;;2.27;;
2029;SDS011;1020;48.854;8.830;2023-07-22T02:58:01;2.70;;;2.50;;
2029;SDS011;1020;48.854;8.830;2023-07-22T03:00:28;3.00;;;2.80;;
2029;SDS011;1020;48.854;8.830;2023-07-22T03:02:55;3.20;;;3.00;;
2029;SDS011;1020;48.854;8.830;2023-07-22T03:05:26;2.60;;;2.40;;
2029;SDS011;1020;48.854;8.830;2023-07-22T03:07:54;3.27;;;2.97;;
2029;SDS011;1020;48.854;8.830;2023-07-22T03:10:21;2.90;;;2.70;;
2029;SDS011;1020;48.854;8.830;2023-07-22T03:12:48;2.53;;;2.43;;
2029;SDS011;1020;48.854;8.830;2023-07-22T03:15:19;3.03;;;2.83;;
2029;SDS011;1020;48.854;8.830;2023-07-22T03:17:47;3.27;;;3.03;;
2029;SDS011;1020;48.854;8.830;2023-07-22T03:20:14;3.47;;;2.83;;
2029;SDS011;1020;48.854;8.830;2023-07-22T03:22:41;3.00;;;2.80;;
2029;SDS011;1020;48.854;8.830;2023-07-22T03:25:09;4.60;;;2.73;;
2029;SDS011;1020;48.854;8.830;2023-07-22T03:27:36;3.20;;;2.97;;
2029;SDS011;1020;48.854;8.830;2023-07-22T03:30:03;2.27;;;2.17;;
2029;SDS011;1020;48.854;8.830;2023-07-22T03:32:32;3.20;;;2.90;;
2029;SDS011;1020;48.854;8.830;2023-07-22T03:34:59;2.97;;;2.70;;
2029;SDS011;1020;48.854;8.830;2023-07-22T03:37:26;2.80;;;2.60;;
2029;SDS011;1020;48.854;8.830;2023-07-22T03:39:53;2.77;;;2.57;;
2029;SDS011;1020;48.854;8.830;2023-07-22T03:42:22;3.10;;;2.77;;
2029;SDS011;1020;48.854;8.830;2023-07-22T03:44:48;2.80;;;2.60;;
2029;SDS011;1020;48.854;8.830;2023-07-22T03:47:15;2.80;;;2.60;;
2029;SDS011;1020;48.854;8.830;2023-07-22T03:49:42;2.87;;;2.67;;
2029;SDS011;1020;48.854;8.830;2023-07-22T03:52:08;3.13;;;2.93;;
2029;SDS011;1020;48.854;8.830;2023-07-22T03:54:39;2.47;;;2.27;;
2029;SDS011;1020;48.854;8.830;2023-07-22T03:57:06;3.80;;;2.60;;
2029;SDS011;1020;48.854;8.830;2023-07-22T03:59:34;3.00;;;2.80;;
2029;SDS011;1020;48.854;8.830;2023-07-22T04:02:00;2.97;;;2.73;;
2029;SDS011;1020;48.854;8.830;2023-07-22T04:04:27;4.10;;;3.23;;
2029;SDS011;1020;48.854;8.830;2023-07-22T04:06:54;3.90;;;3.27;;
2029;SDS011;1020;48.854;8.830;2023-07-22T04:09:21;2.80;;;2.60;;
2029;SDS011;1020;48.854;8.830;2023-07-22T04:11:48;3.40;;;2.97;;
2029;SDS011;1020;48.854;8.830;2023-07-22T04:14:15;2.97;;;2.70;;
2029;SDS011;1020;48.854;8.830;2023-07-22T04:16:43;2.63;;;2.43;;
2029;SDS011;1020;48.854;8.830;2023-07-22T04:19:09;2.90;;;2.70;;
2029;SDS011;1020;48.854;8.830;2023-07-22T04:21:36;2.90;;;2.70;;
2029;SDS011;1020;48.854;8.830;2023-07-22T04:24:03;3.60;;;2.70;;
2029;SDS011;1020;48.854;8.830;2023-07-22T04:26:31;3.40;;;2.80;;
2029;SDS011;1020;48.854;8.830;2023-07-22T04:28:59;3.50;;;3.20;;
2029;SDS011;1020;48.854;8.830;2023-07-22T04:31:26;2.83;;;2.50;;
2029;SDS011;1020;48.854;8.830;2023-07-22T04:33:54;2.87;;;2.67;;
2029;SDS011;1020;48.854;8.830;2023-07-22T04:36:21;3.80;;;3.20;;
2029;SDS011;1020;48.854;8.830;2023-07-22T04:38:47;2.77;;;2.57;;
2029;SDS011;1020;48.854;8.830;2023-07-22T04:41:14;2.83;;;2.63;;
2029;SDS011;1020;48.854;8.830;2023-07-22T04:43:41;2.80;;;2.60;;
2029;SDS011;1020;48.854;8.830;2023-07-22T04:46:08;3.20;;;2.90;;
2029;SDS011;1020;48.854;8.830;2023-07-22T04:48:34;8.23;;;2.93;;
2029;SDS011;1020;48.854;8.830;2023-07-22T04:51:03;3.00;;;2.43;;
2029;SDS011;1020;48.854;8.830;2023-07-22T04:53:30;2.53;;;2.40;;
2029;SDS011;1020;48.854;8.830;2023-07-22T04:55:57;2.70;;;2.50;;
2029;SDS011;1020;48.854;8.830;2023-07-22T04:58:23;2.70;;;2.50;;
2029;SDS011;1020;48.854;8.830;2023-07-22T05:00:50;2.43;;;2.33;;
2029;SDS011;1020;48.854;8.830;2023-07-22T05:03:17;3.07;;;2.80;;
2029;SDS011;1020;48.854;8.830;2023-07-22T05:05:44;3.23;;;2.93;;
2029;SDS011;1020;48.854;8.830;2023-07-22T05:08:12;5.33;;;2.17;;
2029;SDS011;1020;48.854;8.830;2023-07-22T05:10:39;3.83;;;2.50;;
2029;SDS011;1020;48.854;8.830;2023-07-22T05:13:06;2.97;;;2.60;;
2029;SDS011;1020;48.854;8.830;2023-07-22T05:15:33;2.43;;;2.23;;
2029;SDS011;1020;48.854;8.830;2023-07-22T05:18:00;2.40;;;2.30;;
2029;SDS011;1020;48.854;8.830;2023-07-22T05:20:26;2.50;;;2.30;;
2029;SDS011;1020;48.854;8.830;2023-07-22T05:22:53;2.50;;;2.40;;
2029;SDS011;1020;48.854;8.830;2023-07-22T05:25:22;3.17;;;2.87;;
2029;SDS011;1020;48.854;8.830;2023-07-22T05:27:49;2.67;;;2.40;;
2029;SDS011;1020;48.854;8.830;2023-07-22T05:30:16;2.73;;;2.53;;
2029;SDS011;1020;48.854;8.830;2023-07-22T05:32:42;2.67;;;2.47;;
2029;SDS011;1020;48.854;8.830;2023-07-22T05:35:09;2.30;;;2.10;;
2029;SDS011;1020;48.854;8.830;2023-07-22T05:37:36;2.33;;;2.17;;
2029;SDS011;1020;48.854;8.830;2023-07-22T05:40:03;2.50;;;2.30;;
2029;SDS011;1020;48.854;8.830;2023-07-22T05:42:33;2.20;;;2.10;;
2029;SDS011;1020;48.854;8.830;2023-07-22T05:45:01;4.83;;;1.97;;
2029;SDS011;1020;48.854;8.830;2023-07-22T05:47:29;2.63;;;2.33;;
2029;SDS011;1020;48.854;8.830;2023-07-22T05:49:55;2.53;;;2.40;;
2029;SDS011;1020;48.854;8.830;2023-07-22T05:52:22;3.20;;;2.53;;
2029;SDS011;1020;48.854;8.830;2023-07-22T05:54:49;2.17;;;2.00;;
2029;SDS011;1020;48.854;8.830;2023-07-22T05:57:16;3.07;;;2.40;;
2029;SDS011;1020;48.854;8.830;2023-07-22T05:59:44;2.83;;;2.20;;
2029;SDS011;1020;48.854;8.830;2023-07-22T06:02:12;2.00;;;1.90;;
2029;SDS011;1020;48.854;8.830;2023-07-22T06:04:39;2.23;;;2.03;;
2029;SDS011;1020;48.854;8.830;2023-07-22T06:07:06;2.70;;;2.37;;
2029;SDS011;1020;48.854;8.830;2023-07-22T06:09:32;2.70;;;2.50;;
2029;SDS011;1020;48.854;8.830;2023-07-22T06:12:00;2.20;;;2.00;;
2029;SDS011;1020;48.854;8.830;2023-07-22T06:14:27;2.00;;;1.90;;
2029;SDS011;1020;48.854;8.830;2023-07-22T06:16:55;2.00;;;1.90;;
2029;SDS011;1020;48.854;8.830;2023-07-22T06:19:22;1.93;;;1.83;;
2029;SDS011;1020;48.854;8.830;2023-07-22T06:21:49;2.03;;;1.83;;
2029;SDS011;1020;48.854;8.830;2023-07-22T06:24:16;2.13;;;1.93;;
2029;SDS011;1020;48.854;8.830;2023-07-22T06:26:43;2.50;;;2.30;;
2029;SDS011;1020;48.854;8.830;2023-07-22T06:29:09;2.50;;;2.30;;
2029;SDS011;1020;48.854;8.830;2023-07-22T06:31:36;1.80;;;1.70;;
2029;SDS011;1020;48.854;8.830;2023-07-22T06:34:04;2.13;;;1.93;;
2029;SDS011;1020;48.854;8.830;2023-07-22T06:36:31;2.10;;;2.00;;
2029;SDS011;1020;48.854;8.830;2023-07-22T06:38:58;2.77;;;2.30;;
2029;SDS011;1020;48.854;8.830;2023-07-22T06:41:25;3.07;;;2.30;;
2029;SDS011;1020;48.854;8.830;2023-07-22T06:43:51;1.53;;;1.43;;
2029;SDS011;1020;48.854;8.830;2023-07-22T06:46:18;2.37;;;1.80;;
2029;SDS011;1020;48.854;8.830;2023-07-22T06:48:46;2.07;;;1.80;;
2029;SDS011;1020;48.854;8.830;2023-07-22T06:51:14;2.50;;;2.30;;
2029;SDS011;1020;48.854;8.830;2023-07-22T06:53:41;1.80;;;1.60;;
2029;SDS011;1020;48.854;8.830;2023-07-22T06:56:08;5.57;;;2.10;;
2029;SDS011;1020;48.854;8.830;2023-07-22T06:58:35;2.83;;;2.50;;
2029;SDS011;1020;48.854;8.830;2023-07-22T07:01:01;2.30;;;2.10;;
2029;SDS011;1020;48.854;8.830;2023-07-22T07:03:28;2.17;;;2.07;;
2029;SDS011;1020;48.854;8.830;2023-07-22T07:05:55;2.67;;;2.20;;
2029;SDS011;1020;48.854;8.830;2023-07-22T07:08:24;1.83;;;1.73;;
2029;SDS011;1020;48.854;8.830;2023-07-22T07:10:51;3.00;;;2.20;;
2029;SDS011;1020;48.854;8.830;2023-07-22T07:13:17;2.13;;;1.50;;
2029;SDS011;1020;48.854;8.830;2023-07-22T07:15:46;2.13;;;1.60;;
2029;SDS011;1020;48.854;8.830;2023-07-22T07:18:14;1.60;;;1.50;;
2029;SDS011;1020;48.854;8.830;2023-07-22T07:20:42;1.80;;;1.70;;
2029;SDS011;1020;48.854;8.830;2023-07-22T07:23:09;2.03;;;1.87;;
2029;SDS011;1020;48.854;8.830;2023-07-22T07:25:37;1.63;;;1.53;;
2029;SDS011;1020;48.854;8.830;2023-07-22T07:28:04;2.80;;;1.67;;
2029;SDS011;1020;48.854;8.830;2023-07-22T07:30:31;2.40;;;2.20;;
2029;SDS011;1020;48.854;8.830;2023-07-22T07:32:58;2.03;;;1.53;;
2029;SDS011;1020;48.854;8.830;2023-07-22T07:35:25;2.70;;;1.80;;
2029;SDS011;1020;48.854;8.830;2023-07-22T07:37:51;1.70;;;1.60;;
2029;SDS011;1020;48.854;8.830;2023-07-22T07:40:18;1.87;;;1.77;;
2029;SDS011;1020;48.854;8.830;2023-07-22T07:42:46;1.60;;;1.50;;
2029;SDS011;1020;48.854;8.830;2023-07-22T07:45:13;1.40;;;1.30;;
2029;SDS011;1020;48.854;8.830;2023-07-22T07:47:40;1.63;;;1.53;;
2029;SDS011;1020;48.854;8.830;2023-07-22T07:50:07;1.30;;;1.20;;
2029;SDS011;1020;48.854;8.830;2023-07-22T07:52:34;1.60;;;1.50;;
2029;SDS011;1020;48.854;8.830;2023-07-22T07:55:04;1.37;;;1.27;;
2029;SDS011;1020;48.854;8.830;2023-07-22T07:57:31;1.27;;;1.10;;
2029;SDS011;1020;48.854;8.830;2023-07-22T07:59:59;2.60;;;1.17;;
2029;SDS011;1020;48.854;8.830;2023-07-22T08:02:26;1.40;;;1.30;;
2029;SDS011;1020;48.854;8.830;2023-07-22T08:04:53;0.90;;;0.90;;
2029;SDS011;1020;48.854;8.830;2023-07-22T08:07:20;1.47;;;1.37;;
2029;SDS011;1020;48.854;8.830;2023-07-22T08:09:47;2.07;;;1.10;;
2029;SDS011;1020;48.854;8.830;2023-07-22T08:12:15;2.67;;;1.20;;
2029;SDS011;1020;48.854;8.830;2023-07-22T08:14:42;1.47;;;1.37;;
2029;SDS011;1020;48.854;8.830;2023-07-22T08:17:10;1.20;;;1.10;;
2029;SDS011;1020;48.854;8.830;2023-07-22T08:19:37;1.60;;;1.43;;
2029;SDS011;1020;48.854;8.830;2023-07-22T08:22:04;1.83;;;1.20;;
2029;SDS011;1020;48.854;8.830;2023-07-22T08:24:31;1.40;;;1.30;;
2029;SDS011;1020;48.854;8.830;2023-07-22T08:26:58;1.47;;;1.37;;
2029;SDS011;1020;48.854;8.830;2023-07-22T08:29:25;1.00;;;1.00;;
2029;SDS011;1020;48.854;8.830;2023-07-22T08:31:52;1.40;;;1.30;;
2029;SDS011;1020;48.854;8.830;2023-07-22T08:34:20;4.43;;;1.57;;
2029;SDS011;1020;48.854;8.830;2023-07-22T08:36:47;0.90;;;0.90;;
2029;SDS011;1020;48.854;8.830;2023-07-22T08:39:14;1.40;;;1.30;;
2029;SDS011;1020;48.854;8.830;2023-07-22T08:41:41;2.10;;;1.43;;
2029;SDS011;1020;48.854;8.830;2023-07-22T08:44:13;1.70;;;1.60;;
2029;SDS011;1020;48.854;8.830;2023-07-22T08:46:44;1.47;;;1.23;;
2029;SDS011;1020;48.854;8.830;2023-07-22T08:49:12;1.43;;;1.33;;
2029;SDS011;1020;48.854;8.830;2023-07-22T08:51:41;2.70;;;1.57;;
2029;SDS011;1020;48.854;8.830;2023-07-22T08:54:08;1.43;;;1.40;;
2029;SDS011;1020;48.854;8.830;2023-07-22T08:56:36;1.70;;;1.60;;
2029;SDS011;1020;48.854;8.830;2023-07-22T08:59:05;1.77;;;1.40;;
2029;SDS011;1020;48.854;8.830;2023-07-22T09:01:32;3.00;;;1.10;;
2029;SDS011;1020;48.854;8.830;2023-07-22T09:04:00;1.70;;;1.60;;
2029;SDS011;1020;48.854;8.830;2023-07-22T09:06:27;2.20;;;1.47;;
2029;SDS011;1020;48.854;8.830;2023-07-22T09:08:56;1.20;;;1.10;;
2029;SDS011;1020;48.854;8.830;2023-07-22T09:11:24;1.47;;;1.40;;
2029;SDS011;1020;48.854;8.830;2023-07-22T09:13:52;1.50;;;1.40;;
2029;SDS011;1020;48.854;8.830;2023-07-22T09:16:20;2.00;;;1.30;;
2029;SDS011;1020;48.854;8.830;2023-07-22T09:18:47;2.20;;;1.30;;
2029;SDS011;1020;48.854;8.830;2023-07-22T09:21:14;1.60;;;1.33;;
2029;SDS011;1020;48.854;8.830;2023-07-22T09:23:41;1.20;;;1.10;;
2029;SDS011;1020;48.854;8.830;2023-07-22T09:26:09;1.40;;;1.30;;
2029;SDS011;1020;48.854;8.830;2023-07-22T09:28:50;1.93;;;1.33;;
2029;SDS011;1020;48.854;8.830;2023-07-22T09:31:17;1.23;;;1.13;;
2029;SDS011;1020;48.854;8.830;2023-07-22T09:33:44;1.77;;;1.30;;
2029;SDS011;1020;48.854;8.830;2023-07-22T09:36:11;1.27;;;1.17;;
2029;SDS011;1020;48.854;8.830;2023-07-22T09:38:38;1.43;;;1.17;;
2029;SDS011;1020;48.854;8.830;2023-07-22T09:41:05;1.40;;;1.30;;
2029;SDS011;1020;48.854;8.830;2023-07-22T09:43:36;1.43;;;1.30;;
2029;SDS011;1020;48.854;8.830;2023-07-22T09:46:07;1.40;;;1.30;;
2029;SDS011;1020;48.854;8.830;2023-07-22T09:48:39;1.40;;;1.30;;
2029;SDS011;1020;48.854;8.830;2023-07-22T09:51:11;1.50;;;1.40;;
2029;SDS011;1020;48.854;8.830;2023-07-22T09:53:43;3.33;;;1.30;;
2029;SDS011;1020;48.854;8.830;2023-07-22T09:56:10;1.63;;;1.00;;
2029;SDS011;1020;48.854;8.830;2023-07-22T09:58:39;1.30;;;1.30;;
2029;SDS011;1020;48.854;8.830;2023-07-22T10:01:06;1.70;;;1.60;;
2029;SDS011;1020;48.854;8.830;2023-07-22T10:03:33;1.37;;;1.10;;
2029;SDS011;1020;48.854;8.830;2023-07-22T10:06:05;1.33;;;1.20;;
2029;SDS011;1020;48.854;8.830;2023-07-22T10:08:33;1.13;;;1.00;;
2029;SDS011;1020;48.854;8.830;2023-07-22T10:11:01;1.67;;;1.57;;
2029;SDS011;1020;48.854;8.830;2023-07-22T10:13:31;1.60;;;1.50;;
2029;SDS011;1020;48.854;8.830;2023-07-22T10:16:00;1.80;;;1.70;;
2029;SDS011;1020;48.854;8.830;2023-07-22T10:18:27;1.83;;;1.23;;
2029;SDS011;1020;48.854;8.830;2023-07-22T10:20:56;1.40;;;1.30;;
2029;SDS011;1020;48.854;8.830;2023-07-22T10:23:23;1.47;;;1.27;;
2029;SDS011;1020;48.854;8.830;2023-07-22T10:25:52;1.40;;;1.30;;
2029;SDS011;1020;48.854;8.830;2023-07-22T10:28:19;1.57;;;1.47;;
2029;SDS011;1020;48.854;8.830;2023-07-22T10:30:49;1.57;;;1.47;;
2029;SDS011;1020;48.854;8.830;2023-07-22T10:33:17;1.27;;;1.20;;
2029;SDS011;1020;48.854;8.830;2023-07-22T10:36:00;1.13;;;1.03;;
2029;SDS011;1020;48.854;8.830;2023-07-22T10:38:29;1.63;;;1.40;;
2029;SDS011;1020;48.854;8.830;2023-07-22T10:40:56;1.47;;;1.37;;
2029;SDS011;1020;48.854;8.830;2023-07-22T10:43:24;1.37;;;1.27;;
2029;SDS011;1020;48.854;8.830;2023-07-22T10:45:53;1.60;;;1.50;;
2029;SDS011;1020;48.854;8.830;2023-07-22T10:48:24;2.00;;;1.80;;
2029;SDS011;1020;48.854;8.830;2023-07-22T10:50:53;1.33;;;1.23;;
2029;SDS011;1020;48.854;8.830;2023-07-22T10:53:28;1.60;;;1.50;;
2029;SDS011;1020;48.854;8.830;2023-07-22T10:58:57;1.83;;;1.50;;
2029;SDS011;1020;48.854;8.830;2023-07-22T11:01:24;1.90;;;1.80;;
2029;SDS011;1020;48.854;8.830;2023-07-22T11:04:09;1.83;;;1.40;;
2029;SDS011;1020;48.854;8.830;2023-07-22T11:06:51;1.77;;;1.67;;
2029;SDS011;1020;48.854;8.830;2023-07-22T11:09:33;2.20;;;2.00;;
2029;SDS011;1020;48.854;8.830;2023-07-22T11:12:01;2.03;;;1.57;;
2029;SDS011;1020;48.854;8.830;2023-07-22T11:14:30;1.53;;;1.43;;
2029;SDS011;1020;48.854;8.830;2023-07-22T11:16:59;1.80;;;1.33;;
2029;SDS011;1020;48.854;8.830;2023-07-22T11:19:28;1.87;;;1.77;;
2029;SDS011;1020;48.854;8.830;2023-07-22T11:21:55;1.40;;;1.30;;
2029;SDS011;1020;48.854;8.830;2023-07-22T11:24:22;1.30;;;1.20;;
2029;SDS011;1020;48.854;8.830;2023-07-22T11:26:50;1.53;;;1.43;;
2029;SDS011;1020;48.854;8.830;2023-07-22T11:29:17;1.67;;;1.57;;
2029;SDS011;1020;48.854;8.830;2023-07-22T11:31:45;2.50;;;1.67;;
2029;SDS011;1020;48.854;8.830;2023-07-22T11:34:14;1.57;;;1.33;;
2029;SDS011;1020;48.854;8.830;2023-07-22T11:36:44;1.60;;;1.50;;
2029;SDS011;1020;48.854;8.830;2023-07-22T11:39:12;1.47;;;1.37;;
2029;SDS011;1020;48.854;8.830;2023-07-22T11:41:39;1.87;;;1.77;;
2029;SDS011;1020;48.854;8.830;2023-07-22T11:44:08;1.60;;;1.50;;
2029;SDS011;1020;48.854;8.830;2023-07-22T11:46:46;1.83;;;1.73;;
2029;SDS011;1020;48.854;8.830;2023-07-22T11:49:15;1.97;;;1.63;;
2029;SDS011;1020;48.854;8.830;2023-07-22T11:51:50;1.87;;;1.77;;
2029;SDS011;1020;48.854;8.830;2023-07-22T11:54:18;2.10;;;1.50;;
2029;SDS011;1020;48.854;8.830;2023-07-22T11:56:46;1.63;;;1.53;;
2029;SDS011;1020;48.854;8.830;2023-07-22T11:59:13;2.33;;;1.30;;
2029;SDS011;1020;48.854;8.830;2023-07-22T12:01:44;1.73;;;1.63;;
2029;SDS011;1020;48.854;8.830;2023-07-22T12:04:12;2.10;;;1.90;;
2029;SDS011;1020;48.854;8.830;2023-07-22T12:06:39;1.57;;;1.47;;
2029;SDS011;1020;48.854;8.830;2023-07-22T12:09:09;2.10;;;1.37;;
2029;SDS011;1020;48.854;8.830;2023-07-22T12:11:36;2.30;;;1.63;;
2029;SDS011;1020;48.854;8.830;2023-07-22T12:14:04;1.70;;;1.60;;
2029;SDS011;1020;48.854;8.830;2023-07-22T12:16:34;1.60;;;1.50;;
2029;SDS011;1020;48.854;8.830;2023-07-22T12:19:02;1.60;;;1.50;;
2029;SDS011;1020;48.854;8.830;2023-07-22T12:21:29;1.40;;;1.30;;
2029;SDS011;1020;48.854;8.830;2023-07-22T12:23:56;1.50;;;1.40;;
2029;SDS011;1020;48.854;8.830;2023-07-22T12:26:24;1.73;;;1.63;;
2029;SDS011;1020;48.854;8.830;2023-07-22T12:28:51;1.97;;;1.87;;
2029;SDS011;1020;48.854;8.830;2023-07-22T12:31:18;1.70;;;1.60;;
2029;SDS011;1020;48.854;8.830;2023-07-22T12:33:45;1.87;;;1.77;;
2029;SDS011;1020;48.854;8.830;2023-07-22T12:36:12;1.63;;;1.50;;
2029;SDS011;1020;48.854;8.830;2023-07-22T12:38:39;1.60;;;1.50;;
2029;SDS011;1020;48.854;8.830;2023-07-22T12:41:05;2.17;;;2.07;;
2029;SDS011;1020;48.854;8.830;2023-07-22T12:43:33;2.77;;;1.50;;
2029;SDS011;1020;48.854;8.830;2023-07-22T12:46:00;3.63;;;1.70;;
2029;SDS011;1020;48.854;8.830;2023-07-22T12:48:27;1.73;;;1.63;;
2029;SDS011;1020;48.854;8.830;2023-07-22T12:50:54;1.50;;;1.40;;
2029;SDS011;1020;48.854;8.830;2023-07-22T12:53:21;1.70;;;1.60;;
2029;SDS011;1020;48.854;8.830;2023-07-22T12:55:48;1.40;;;1.30;;
2029;SDS011;1020;48.854;8.830;2023-07-22T12:58:15;1.80;;;1.70;;
2029;SDS011;1020;48.854;8.830;2023-07-22T13:00:43;2.07;;;1.97;;
2029;SDS011;1020;48.854;8.830;2023-07-22T13:03:10;3.10;;;1.73;;
2029;SDS011;1020;48.854;8.830;2023-07-22T13:05:36;2.00;;;1.73;;
2029;SDS011;1020;48.854;8.830;2023-07-22T13:08:03;1.80;;;1.70;;
2029;SDS011;1020;48.854;8.830;2023-07-22T13:10:30;1.93;;;1.83;;
2029;SDS011;1020;48.854;8.830;2023-07-22T13:12:59;2.67;;;1.80;;
2029;SDS011;1020;48.854;8.830;2023-07-22T13:15:26;1.93;;;1.80;;
2029;SDS011;1020;48.854;8.830;2023-07-22T13:17:54;1.67;;;1.57;;
2029;SDS011;1020;48.854;8.830;2023-07-22T13:20:20;2.37;;;2.17;;
2029;SDS011;1020;48.854;8.830;2023-07-22T13:22:47;1.87;;;1.77;;
2029;SDS011;1020;48.854;8.830;2023-07-22T13:25:14;5.03;;;1.87;;
2029;SDS011;1020;48.854;8.830;2023-07-22T13:27:41;1.83;;;1.73;;
2029;SDS011;1020;48.854;8.830;2023-07-22T13:30:08;2.30;;;1.80;;
2029;SDS011;1020;48.854;8.830;2023-07-22T13:32:35;1.80;;;1.70;;
2029;SDS011;1020;48.854;8.830;2023-07-22T13:35:04;2.53;;;2.10;;
2029;SDS011;1020;48.854;8.830;2023-07-22T13:37:31;2.23;;;1.90;;
2029;SDS011;1020;48.854;8.830;2023-07-22T13:39:58;1.97;;;1.87;;
2029;SDS011;1020;48.854;8.830;2023-07-22T13:42:25;2.10;;;2.00;;
2029;SDS011;1020;48.854;8.830;2023-07-22T13:44:52;2.07;;;1.97;;
2029;SDS011;1020;48.854;8.830;2023-07-22T13:47:19;2.30;;;2.10;;
2029;SDS011;1020;48.854;8.830;2023-07-22T13:49:45;1.90;;;1.80;;
2029;SDS011;1020;48.854;8.830;2023-07-22T13:52:13;2.30;;;2.20;;
2029;SDS011;1020;48.854;8.830;2023-07-22T13:54:40;2.27;;;2.13;;
2029;SDS011;1020;48.854;8.830;2023-07-22T13:57:07;2.10;;;2.00;;
2029;SDS011;1020;48.854;8.830;2023-07-22T13:59:34;2.77;;;2.23;;
2029;SDS011;1020;48.854;8.830;2023-07-22T14:02:01;1.93;;;1.83;;
2029;SDS011;1020;48.854;8.830;2023-07-22T14:04:28;2.20;;;2.10;;
2029;SDS011;1020;48.854;8.830;2023-07-22T14:06:55;2.00;;;1.87;;
2029;SDS011;1020;48.854;8.830;2023-07-22T14:09:23;2.20;;;2.10;;
2029;SDS011;1020;48.854;8.830;2023-07-22T14:11:50;2.17;;;1.97;;
2029;SDS011;1020;48.854;8.830;2023-07-22T14:14:17;2.30;;;2.13;;
2029;SDS011;1020;48.854;8.830;2023-07-22T14:16:44;2.57;;;2.37;;
2029;SDS011;1020;48.854;8.830;2023-07-22T14:19:11;2.37;;;1.80;;
2029;SDS011;1020;48.854;8.830;2023-07-22T14:21:38;2.57;;;2.20;;
2029;SDS011;1020;48.854;8.830;2023-07-22T14:24:05;2.20;;;2.00;;
2029;SDS011;1020;48.854;8.830;2023-07-22T14:26:33;2.97;;;2.60;;
2029;SDS011;1020;48.854;8.830;2023-07-22T14:28:59;2.13;;;2.03;;
2029;SDS011;1020;48.854;8.830;2023-07-22T14:31:26;2.10;;;2.00;;
2029;SDS011;1020;48.854;8.830;2023-07-22T14:33:53;2.43;;;1.83;;
2029;SDS011;1020;48.854;8.830;2023-07-22T14:36:20;2.60;;;2.40;;
2029;SDS011;1020;48.854;8.830;2023-07-22T14:38:47;2.10;;;1.93;;
2029;SDS011;1020;48.854;8.830;2023-07-22T14:41:14;2.30;;;2.20;;
2029;SDS011;1020;48.854;8.830;2023-07-22T14:43:42;2.20;;;2.10;;
2029;SDS011;1020;48.854;8.830;2023-07-22T14:46:09;1.77;;;1.67;;
2029;SDS011;1020;48.854;8.830;2023-07-22T14:48:36;2.00;;;1.90;;
2029;SDS011;1020;48.854;8.830;2023-07-22T14:51:02;2.13;;;2.03;;
2029;SDS011;1020;48.854;8.830;2023-07-22T14:55:57;3.10;;;2.00;;
2029;SDS011;1020;48.854;8.830;2023-07-22T14:58:24;2.30;;;2.03;;
2029;SDS011;1020;48.854;8.830;2023-07-22T15:00:52;2.23;;;2.13;;
2029;SDS011;1020;48.854;8.830;2023-07-22T15:03:19;2.03;;;1.93;;
2029;SDS011;1020;48.854;8.830;2023-07-22T15:05:45;2.00;;;1.90;;
2029;SDS011;1020;48.854;8.830;2023-07-22T15:08:12;1.83;;;1.73;;
2029;SDS011;1020;48.854;8.830;2023-07-22T15:10:39;3.60;;;2.20;;
2029;SDS011;1020;48.854;8.830;2023-07-22T15:13:06;2.30;;;2.10;;
2029;SDS011;1020;48.854;8.830;2023-07-22T15:15:32;2.43;;;2.23;;
2029;SDS011;1020;48.854;8.830;2023-07-22T15:18:01;2.10;;;2.00;;
2029;SDS011;1020;48.854;8.830;2023-07-22T15:20:27;2.27;;;2.07;;
2029;SDS011;1020;48.854;8.830;2023-07-22T15:22:54;3.70;;;1.87;;